sensor_id;sensor_type;location;lat;lon;timestamp;pressure;altitude;pressure_sealevel;temperature;humidity
47280;BME280;34064;44.942;0.008;2024-03-07T00:00:09;99061.97;;;9.45;62.32
47280;BME280;34064;44.942;0.008;2024-03-07T00:02:47;99048.81;;;9.44;62.39
47280;BME280;34064;44.942;0.008;2024-03-07T00:05:17;99044.47;;;9.43;62.47
47280;BME280;34064;44.942;0.008;2024-03-07T00:07:44;99049.88;;;9.41;62.41
47280;BME280;34064;44.942;0.008;2024-03-07T00:10:11;99041.19;;;9.39;62.48
47280;BME280;34064;44.942;0.008;2024-03-07T00:12:39;99041.38;;;9.36;62.49
47280;BME280;34064;44.942;0.008;2024-03-07T00:15:07;99051.34;;;9.32;62.40
47280;BME280;34064;44.942;0.008;2024-03-07T00:17:33;99045.31;;;9.30;62.46
47280;BME280;34064;44.942;0.008;2024-03-07T00:20:01;99045.53;;;9.27;62.41
47280;BME280;34064;44.942;0.008;2024-03-07T00:22:28;99044.78;;;9.25;62.53
47280;BME280;34064;44.942;0.008;2024-03-07T00:24:56;99043.25;;;9.21;62.43
47280;BME280;34064;44.942;0.008;2024-03-07T00:27:23;99038.19;;;9.18;62.58
47280;BME280;34064;44.942;0.008;2024-03-07T00:29:49;99035.94;;;9.12;62.65
47280;BME280;34064;44.942;0.008;2024-03-07T00:32:23;99035.19;;;9.10;62.57
47280;BME280;34064;44.942;0.008;2024-03-07T00:34:50;99043.34;;;9.07;62.70
47280;BME280;34064;44.942;0.008;2024-03-07T00:37:17;99041.94;;;9.01;62.36
47280;BME280;34064;44.942;0.008;2024-03-07T00:39:43;99036.00;;;8.97;62.49
47280;BME280;34064;44.942;0.008;2024-03-07T00:42:10;99034.50;;;8.93;62.47
47280;BME280;34064;44.942;0.008;2024-03-07T00:44:36;99030.91;;;8.94;62.51
47280;BME280;34064;44.942;0.008;2024-03-07T00:47:03;99023.91;;;8.93;62.65
47280;BME280;34064;44.942;0.008;2024-03-07T00:49:30;99024.97;;;8.90;62.67
47280;BME280;34064;44.942;0.008;2024-03-07T00:51:58;99015.44;;;8.88;62.67
47280;BME280;34064;44.942;0.008;2024-03-07T00:54:25;99013.72;;;8.87;62.56
47280;BME280;34064;44.942;0.008;2024-03-07T00:56:52;99004.19;;;8.84;62.55
47280;BME280;34064;44.942;0.008;2024-03-07T00:59:19;99007.13;;;8.80;62.66
47280;BME280;34064;44.942;0.008;2024-03-07T01:01:46;99014.34;;;8.78;62.69
47280;BME280;34064;44.942;0.008;2024-03-07T01:04:12;99009.22;;;8.74;62.75
47280;BME280;34064;44.942;0.008;2024-03-07T01:06:38;99005.00;;;8.72;62.79
47280;BME280;34064;44.942;0.008;2024-03-07T01:09:06;99001.50;;;8.71;62.71
47280;BME280;34064;44.942;0.008;2024-03-07T01:11:42;99000.75;;;8.69;62.92
47280;BME280;34064;44.942;0.008;2024-03-07T01:14:08;98999.22;;;8.65;63.01
47280;BME280;34064;44.942;0.008;2024-03-07T01:16:35;98993.94;;;8.65;62.88
47280;BME280;34064;44.942;0.008;2024-03-07T01:19:01;98996.81;;;8.62;62.74
47280;BME280;34064;44.942;0.008;2024-03-07T01:21:28;98983.75;;;8.59;63.07
47280;BME280;34064;44.942;0.008;2024-03-07T01:23:54;98984.81;;;8.56;62.94
47280;BME280;34064;44.942;0.008;2024-03-07T01:26:20;98979.53;;;8.56;63.11
47280;BME280;34064;44.942;0.008;2024-03-07T01:28:47;98983.00;;;8.57;63.03
47280;BME280;34064;44.942;0.008;2024-03-07T01:31:14;98970.81;;;8.54;63.19
47280;BME280;34064;44.942;0.008;2024-03-07T01:33:40;98975.66;;;8.48;63.95
47280;BME280;34064;44.942;0.008;2024-03-07T01:36:06;98970.19;;;8.51;63.52
47280;BME280;34064;44.942;0.008;2024-03-07T01:38:33;98967.63;;;8.49;63.52
47280;BME280;34064;44.942;0.008;2024-03-07T01:40:59;98952.69;;;8.48;63.66
47280;BME280;34064;44.942;0.008;2024-03-07T01:43:25;98952.69;;;8.48;63.54
47280;BME280;34064;44.942;0.008;2024-03-07T01:45:54;98945.59;;;8.49;63.55
47280;BME280;34064;44.942;0.008;2024-03-07T01:48:26;98949.19;;;8.48;63.69
47280;BME280;34064;44.942;0.008;2024-03-07T01:50:55;98937.75;;;8.47;63.63
47280;BME280;34064;44.942;0.008;2024-03-07T01:53:23;98929.88;;;8.46;64.01
47280;BME280;34064;44.942;0.008;2024-03-07T01:55:51;98936.88;;;8.47;64.04
47280;BME280;34064;44.942;0.008;2024-03-07T01:58:21;98925.56;;;8.45;63.83
47280;BME280;34064;44.942;0.008;2024-03-07T02:00:48;98927.34;;;8.44;64.05
47280;BME280;34064;44.942;0.008;2024-03-07T02:03:14;98936.13;;;8.45;64.29
47280;BME280;34064;44.942;0.008;2024-03-07T02:05:41;98925.75;;;8.41;64.16
47280;BME280;34064;44.942;0.008;2024-03-07T02:08:08;98928.38;;;8.41;63.99
47280;BME280;34064;44.942;0.008;2024-03-07T02:10:34;98923.09;;;8.41;64.01
47280;BME280;34064;44.942;0.008;2024-03-07T02:13:01;98922.16;;;8.42;63.83
47280;BME280;34064;44.942;0.008;2024-03-07T02:15:28;98917.81;;;8.41;64.07
47280;BME280;34064;44.942;0.008;2024-03-07T02:17:54;98909.00;;;8.41;63.91
47280;BME280;34064;44.942;0.008;2024-03-07T02:20:21;98908.91;;;8.42;64.08
47280;BME280;34064;44.942;0.008;2024-03-07T02:22:48;98905.50;;;8.40;63.98
47280;BME280;34064;44.942;0.008;2024-03-07T02:25:14;98901.34;;;8.36;64.50
47280;BME280;34064;44.942;0.008;2024-03-07T02:27:42;98907.41;;;8.38;64.21
47280;BME280;34064;44.942;0.008;2024-03-07T02:30:08;98911.00;;;8.37;64.25
47280;BME280;34064;44.942;0.008;2024-03-07T02:32:35;98901.56;;;8.33;64.56
47280;BME280;34064;44.942;0.008;2024-03-07T02:35:06;98887.28;;;8.36;64.07
47280;BME280;34064;44.942;0.008;2024-03-07T02:37:32;98888.13;;;8.36;64.19
47280;BME280;34064;44.942;0.008;2024-03-07T02:39:59;98879.47;;;8.34;64.47
47280;BME280;34064;44.942;0.008;2024-03-07T02:42:25;98877.75;;;8.33;64.22
47280;BME280;34064;44.942;0.008;2024-03-07T02:44:52;98863.88;;;8.30;64.17
47280;BME280;34064;44.942;0.008;2024-03-07T02:47:19;98858.47;;;8.31;64.04
47280;BME280;34064;44.942;0.008;2024-03-07T02:49:45;98852.44;;;8.29;64.01
47280;BME280;34064;44.942;0.008;2024-03-07T02:52:11;98851.66;;;8.27;63.98
47280;BME280;34064;44.942;0.008;2024-03-07T02:54:38;98852.72;;;8.24;64.05
47280;BME280;34064;44.942;0.008;2024-03-07T02:57:05;98859.84;;;8.24;63.80
47280;BME280;34064;44.942;0.008;2024-03-07T02:59:31;98844.03;;;8.22;63.92
47280;BME280;34064;44.942;0.008;2024-03-07T03:01:58;98845.09;;;8.20;63.93
47280;BME280;34064;44.942;0.008;2024-03-07T03:04:24;98849.63;;;8.18;63.95
47280;BME280;34064;44.942;0.008;2024-03-07T03:06:50;98850.63;;;8.17;63.89
47280;BME280;34064;44.942;0.008;2024-03-07T03:09:17;98849.84;;;8.15;64.08
47280;BME280;34064;44.942;0.008;2024-03-07T03:11:44;98850.81;;;8.14;63.87
47280;BME280;34064;44.942;0.008;2024-03-07T03:14:11;98836.72;;;8.13;63.99
47280;BME280;34064;44.942;0.008;2024-03-07T03:16:42;98839.47;;;8.11;63.94
47280;BME280;34064;44.942;0.008;2024-03-07T03:19:09;98838.72;;;8.09;63.86
47280;BME280;34064;44.942;0.008;2024-03-07T03:21:36;98831.72;;;8.08;63.83
47280;BME280;34064;44.942;0.008;2024-03-07T03:24:03;98843.47;;;8.04;63.96
47280;BME280;34064;44.942;0.008;2024-03-07T03:26:30;98840.94;;;8.03;63.93
47280;BME280;34064;44.942;0.008;2024-03-07T03:28:58;98830.66;;;7.98;64.15
47280;BME280;34064;44.942;0.008;2024-03-07T03:31:25;98838.97;;;7.92;64.24
47280;BME280;34064;44.942;0.008;2024-03-07T03:33:51;98829.34;;;7.91;64.12
47280;BME280;34064;44.942;0.008;2024-03-07T03:36:18;98823.28;;;7.89;64.05
47280;BME280;34064;44.942;0.008;2024-03-07T03:38:45;98819.91;;;7.87;64.10
47280;BME280;34064;44.942;0.008;2024-03-07T03:41:15;98816.41;;;7.86;64.05
47280;BME280;34064;44.942;0.008;2024-03-07T03:43:43;98808.59;;;7.85;64.04
47280;BME280;34064;44.942;0.008;2024-03-07T03:46:12;98812.38;;;7.80;64.29
47280;BME280;34064;44.942;0.008;2024-03-07T03:48:42;98814.28;;;7.78;64.19
47280;BME280;34064;44.942;0.008;2024-03-07T03:51:08;98811.63;;;7.78;63.94
47280;BME280;34064;44.942;0.008;2024-03-07T03:53:38;98798.41;;;7.78;63.93
47280;BME280;34064;44.942;0.008;2024-03-07T03:56:05;98795.09;;;7.75;64.23
47280;BME280;34064;44.942;0.008;2024-03-07T03:58:32;98793.50;;;7.72;63.91
47280;BME280;34064;44.942;0.008;2024-03-07T04:00:58;98781.22;;;7.71;64.19
47280;BME280;34064;44.942;0.008;2024-03-07T04:03:25;98777.88;;;7.69;64.51
47280;BME280;34064;44.942;0.008;2024-03-07T04:05:52;98781.44;;;7.68;64.16
47280;BME280;34064;44.942;0.008;2024-03-07T04:08:19;98779.84;;;7.65;64.39
47280;BME280;34064;44.942;0.008;2024-03-07T04:10:46;98773.72;;;7.65;64.53
47280;BME280;34064;44.942;0.008;2024-03-07T04:13:12;98777.41;;;7.62;64.99
47280;BME280;34064;44.942;0.008;2024-03-07T04:15:39;98777.28;;;7.64;64.72
47280;BME280;34064;44.942;0.008;2024-03-07T04:18:06;98776.47;;;7.63;64.74
47280;BME280;34064;44.942;0.008;2024-03-07T04:20:33;98765.97;;;7.62;65.00
47280;BME280;34064;44.942;0.008;2024-03-07T04:22:59;98765.03;;;7.63;64.53
47280;BME280;34064;44.942;0.008;2024-03-07T04:25:26;98762.50;;;7.61;64.70
47280;BME280;34064;44.942;0.008;2024-03-07T04:27:54;98759.19;;;7.58;65.19
47280;BME280;34064;44.942;0.008;2024-03-07T04:30:20;98757.50;;;7.57;65.17
47280;BME280;34064;44.942;0.008;2024-03-07T04:32:47;98764.50;;;7.58;65.05
47280;BME280;34064;44.942;0.008;2024-03-07T04:35:14;98755.69;;;7.57;65.08
47280;BME280;34064;44.942;0.008;2024-03-07T04:37:40;98758.34;;;7.57;64.97
47280;BME280;34064;44.942;0.008;2024-03-07T04:40:08;98746.06;;;7.56;65.18
47280;BME280;34064;44.942;0.008;2024-03-07T04:42:45;98745.22;;;7.56;65.12
47280;BME280;34064;44.942;0.008;2024-03-07T04:45:13;98757.50;;;7.57;65.36
47280;BME280;34064;44.942;0.008;2024-03-07T04:47:40;98737.19;;;7.57;65.10
47280;BME280;34064;44.942;0.008;2024-03-07T04:50:10;98737.00;;;7.60;65.24
47280;BME280;34064;44.942;0.008;2024-03-07T04:52:38;98744.16;;;7.58;65.30
47280;BME280;34064;44.942;0.008;2024-03-07T04:55:09;98737.28;;;7.56;65.24
47280;BME280;34064;44.942;0.008;2024-03-07T04:57:39;98732.94;;;7.55;65.32
47280;BME280;34064;44.942;0.008;2024-03-07T05:00:11;98728.59;;;7.54;65.26
47280;BME280;34064;44.942;0.008;2024-03-07T05:02:44;98720.59;;;7.55;65.22
47280;BME280;34064;44.942;0.008;2024-03-07T05:05:11;98726.91;;;7.53;65.29
47280;BME280;34064;44.942;0.008;2024-03-07T05:07:38;98725.22;;;7.52;65.38
47280;BME280;34064;44.942;0.008;2024-03-07T05:10:07;98722.56;;;7.52;65.44
47280;BME280;34064;44.942;0.008;2024-03-07T05:12:33;98732.41;;;7.49;65.53
47280;BME280;34064;44.942;0.008;2024-03-07T05:15:00;98731.47;;;7.51;65.63
47280;BME280;34064;44.942;0.008;2024-03-07T05:17:26;98723.44;;;7.52;65.39
47280;BME280;34064;44.942;0.008;2024-03-07T05:19:54;98736.19;;;7.45;65.50
47280;BME280;34064;44.942;0.008;2024-03-07T05:22:21;98729.78;;;7.49;65.65
47280;BME280;34064;44.942;0.008;2024-03-07T05:24:51;98724.56;;;7.48;65.73
47280;BME280;34064;44.942;0.008;2024-03-07T05:27:17;98719.19;;;7.49;65.75
47280;BME280;34064;44.942;0.008;2024-03-07T05:29:43;98722.56;;;7.52;65.57
47280;BME280;34064;44.942;0.008;2024-03-07T05:32:26;98710.31;;;7.51;65.39
47280;BME280;34064;44.942;0.008;2024-03-07T05:34:53;98706.94;;;7.48;65.54
47280;BME280;34064;44.942;0.008;2024-03-07T05:37:23;98704.06;;;7.52;65.51
47280;BME280;34064;44.942;0.008;2024-03-07T05:39:53;98707.88;;;7.47;65.51
47280;BME280;34064;44.942;0.008;2024-03-07T05:42:19;98698.06;;;7.49;65.60
47280;BME280;34064;44.942;0.008;2024-03-07T05:44:46;98700.59;;;7.51;65.54
47280;BME280;34064;44.942;0.008;2024-03-07T05:47:12;98697.00;;;7.52;65.38
47280;BME280;34064;44.942;0.008;2024-03-07T05:49:42;98692.78;;;7.49;65.36
47280;BME280;34064;44.942;0.008;2024-03-07T05:52:09;98689.38;;;7.47;65.59
47280;BME280;34064;44.942;0.008;2024-03-07T05:54:36;98692.78;;;7.49;65.63
47280;BME280;34064;44.942;0.008;2024-03-07T05:57:03;98689.19;;;7.51;65.53
47280;BME280;34064;44.942;0.008;2024-03-07T05:59:32;98678.59;;;7.51;65.16
47280;BME280;34064;44.942;0.008;2024-03-07T06:01:58;98683.91;;;7.51;65.43
47280;BME280;34064;44.942;0.008;2024-03-07T06:04:24;98690.13;;;7.49;65.31
47280;BME280;34064;44.942;0.008;2024-03-07T06:06:51;98686.53;;;7.51;65.20
47280;BME280;34064;44.942;0.008;2024-03-07T06:09:17;98670.56;;;7.52;65.27
47280;BME280;34064;44.942;0.008;2024-03-07T06:11:48;98677.00;;;7.48;65.35
47280;BME280;34064;44.942;0.008;2024-03-07T06:14:15;98670.69;;;7.51;65.12
47280;BME280;34064;44.942;0.008;2024-03-07T06:16:42;98676.91;;;7.49;65.35
47280;BME280;34064;44.942;0.008;2024-03-07T06:19:09;98678.81;;;7.47;65.39
47280;BME280;34064;44.942;0.008;2024-03-07T06:21:39;98679.63;;;7.48;65.27
47280;BME280;34064;44.942;0.008;2024-03-07T06:24:07;98670.75;;;7.49;65.23
47280;BME280;34064;44.942;0.008;2024-03-07T06:26:36;98675.09;;;7.50;65.02
47280;BME280;34064;44.942;0.008;2024-03-07T06:29:16;98657.22;;;7.54;64.98
47280;BME280;34064;44.942;0.008;2024-03-07T06:31:44;98664.63;;;7.48;65.07
47280;BME280;34064;44.942;0.008;2024-03-07T06:34:14;98659.13;;;7.52;65.00
47280;BME280;34064;44.942;0.008;2024-03-07T06:36:40;98662.75;;;7.51;64.90
47280;BME280;34064;44.942;0.008;2024-03-07T06:39:07;98658.41;;;7.49;64.84
47280;BME280;34064;44.942;0.008;2024-03-07T06:41:36;98656.59;;;7.50;64.80
47280;BME280;34064;44.942;0.008;2024-03-07T06:44:03;98656.59;;;7.50;64.98
47280;BME280;34064;44.942;0.008;2024-03-07T06:46:29;98648.47;;;7.53;64.77
47280;BME280;34064;44.942;0.008;2024-03-07T06:48:59;98654.72;;;7.52;64.73
47280;BME280;34064;44.942;0.008;2024-03-07T06:51:25;98651.00;;;7.55;64.71
47280;BME280;34064;44.942;0.008;2024-03-07T06:53:52;98650.06;;;7.56;64.67
47280;BME280;34064;44.942;0.008;2024-03-07T06:56:18;98645.59;;;7.56;64.68
47280;BME280;34064;44.942;0.008;2024-03-07T06:58:45;98651.00;;;7.55;64.96
47280;BME280;34064;44.942;0.008;2024-03-07T07:01:14;98651.56;;;7.60;64.59
47280;BME280;34064;44.942;0.008;2024-03-07T07:03:45;98642.66;;;7.61;64.59
47280;BME280;34064;44.942;0.008;2024-03-07T07:06:13;98650.50;;;7.62;64.27
47280;BME280;34064;44.942;0.008;2024-03-07T07:08:39;98647.75;;;7.64;64.23
47280;BME280;34064;44.942;0.008;2024-03-07T07:11:06;98657.50;;;7.63;64.13
47280;BME280;34064;44.942;0.008;2024-03-07T07:13:32;98653.03;;;7.64;64.34
47280;BME280;34064;44.942;0.008;2024-03-07T07:15:59;98648.63;;;7.64;64.18
47280;BME280;34064;44.942;0.008;2024-03-07T07:18:25;98658.44;;;7.62;64.21
47280;BME280;34064;44.942;0.008;2024-03-07T07:20:52;98653.97;;;7.63;63.95
47280;BME280;34064;44.942;0.008;2024-03-07T07:23:19;98646.69;;;7.67;63.91
47280;BME280;34064;44.942;0.008;2024-03-07T07:25:46;98644.91;;;7.67;63.78
47280;BME280;34064;44.942;0.008;2024-03-07T07:28:12;98641.31;;;7.68;63.82
47280;BME280;34064;44.942;0.008;2024-03-07T07:30:39;98636.97;;;7.67;63.75
47280;BME280;34064;44.942;0.008;2024-03-07T07:33:05;98641.19;;;7.70;63.78
47280;BME280;34064;44.942;0.008;2024-03-07T07:35:32;98627.66;;;7.74;63.74
47280;BME280;34064;44.942;0.008;2024-03-07T07:38:00;98629.38;;;7.75;63.64
47280;BME280;34064;44.942;0.008;2024-03-07T07:40:27;98637.81;;;7.80;63.49
47280;BME280;34064;44.942;0.008;2024-03-07T07:42:54;98626.84;;;7.87;63.43
47280;BME280;34064;44.942;0.008;2024-03-07T07:45:22;98622.81;;;7.94;63.32
47280;BME280;34064;44.942;0.008;2024-03-07T07:47:50;98617.72;;;8.04;63.20
47280;BME280;34064;44.942;0.008;2024-03-07T07:50:19;98620.91;;;8.09;62.75
47280;BME280;34064;44.942;0.008;2024-03-07T07:52:49;98612.47;;;8.17;62.96
47280;BME280;34064;44.942;0.008;2024-03-07T07:55:17;98603.13;;;8.24;62.54
47280;BME280;34064;44.942;0.008;2024-03-07T07:57:50;98596.31;;;8.33;62.24
47280;BME280;34064;44.942;0.008;2024-03-07T08:00:23;98597.19;;;8.33;62.12
47280;BME280;34064;44.942;0.008;2024-03-07T08:03:11;98598.47;;;8.27;62.32
47280;BME280;34064;44.942;0.008;2024-03-07T08:05:40;98596.94;;;8.36;62.12
47280;BME280;34064;44.942;0.008;2024-03-07T08:08:08;98587.66;;;8.43;62.33
47280;BME280;34064;44.942;0.008;2024-03-07T08:10:38;98585.09;;;8.55;61.94
47280;BME280;34064;44.942;0.008;2024-03-07T08:13:05;98574.06;;;8.61;61.78
47280;BME280;34064;44.942;0.008;2024-03-07T08:15:36;98564.59;;;8.70;61.77
47280;BME280;34064;44.942;0.008;2024-03-07T08:18:03;98559.63;;;8.78;61.41
47280;BME280;34064;44.942;0.008;2024-03-07T08:20:34;98552.56;;;8.90;61.40
47280;BME280;34064;44.942;0.008;2024-03-07T08:23:01;98539.59;;;8.98;61.42
47280;BME280;34064;44.942;0.008;2024-03-07T08:25:29;98545.03;;;9.08;60.97
47280;BME280;34064;44.942;0.008;2024-03-07T08:27:56;98533.88;;;9.16;60.78
47280;BME280;34064;44.942;0.008;2024-03-07T08:30:24;98534.03;;;9.26;60.58
47280;BME280;34064;44.942;0.008;2024-03-07T08:32:52;98521.31;;;9.42;59.97
47280;BME280;34064;44.942;0.008;2024-03-07T08:35:19;98521.78;;;9.47;59.75
47280;BME280;34064;44.942;0.008;2024-03-07T08:37:48;98511.31;;;9.57;59.68
47280;BME280;34064;44.942;0.008;2024-03-07T08:40:19;98503.97;;;9.61;59.75
47280;BME280;34064;44.942;0.008;2024-03-07T08:42:51;98490.72;;;9.72;59.42
47280;BME280;34064;44.942;0.008;2024-03-07T08:45:18;98496.88;;;9.84;59.45
47280;BME280;34064;44.942;0.008;2024-03-07T08:47:49;98486.38;;;9.94;59.28
47280;BME280;34064;44.942;0.008;2024-03-07T08:50:16;98480.47;;;10.02;59.15
47280;BME280;34064;44.942;0.008;2024-03-07T08:52:44;98472.50;;;10.13;59.01
47280;BME280;34064;44.942;0.008;2024-03-07T08:55:13;98473.44;;;10.23;58.77
47280;BME280;34064;44.942;0.008;2024-03-07T08:57:43;98472.22;;;10.27;58.64
47280;BME280;34064;44.942;0.008;2024-03-07T09:00:13;98468.22;;;10.33;58.81
47280;BME280;34064;44.942;0.008;2024-03-07T09:02:54;98461.75;;;10.37;58.75
47280;BME280;34064;44.942;0.008;2024-03-07T09:05:24;98458.19;;;10.37;58.37
47280;BME280;34064;44.942;0.008;2024-03-07T09:07:51;98458.94;;;10.39;58.36
47280;BME280;34064;44.942;0.008;2024-03-07T09:10:19;98451.41;;;10.55;57.79
47280;BME280;34064;44.942;0.008;2024-03-07T09:12:46;98442.00;;;10.63;57.84
47280;BME280;34064;44.942;0.008;2024-03-07T09:15:16;98440.38;;;10.71;58.24
47280;BME280;34064;44.942;0.008;2024-03-07T09:17:43;98432.78;;;10.88;57.81
47280;BME280;34064;44.942;0.008;2024-03-07T09:20:13;98425.16;;;10.95;57.50
47280;BME280;34064;44.942;0.008;2024-03-07T09:22:44;98426.31;;;11.02;57.80
47280;BME280;34064;44.942;0.008;2024-03-07T09:25:11;98425.53;;;11.11;57.82
47280;BME280;34064;44.942;0.008;2024-03-07T09:27:42;98414.44;;;11.27;57.21
47280;BME280;34064;44.942;0.008;2024-03-07T09:30:09;98406.06;;;11.32;57.34
47280;BME280;34064;44.942;0.008;2024-03-07T09:32:40;98402.91;;;11.38;57.45
47280;BME280;34064;44.942;0.008;2024-03-07T09:35:08;98405.34;;;11.51;57.14
47280;BME280;34064;44.942;0.008;2024-03-07T09:37:40;98400.91;;;11.61;57.31
47280;BME280;34064;44.942;0.008;2024-03-07T09:40:07;98384.69;;;11.74;57.31
47280;BME280;34064;44.942;0.008;2024-03-07T09:42:36;98381.91;;;11.85;57.23
47280;BME280;34064;44.942;0.008;2024-03-07T09:45:05;98369.09;;;12.00;56.52
47280;BME280;34064;44.942;0.008;2024-03-07T09:47:31;98353.84;;;12.12;56.11
47280;BME280;34064;44.942;0.008;2024-03-07T09:49:58;98358.59;;;12.28;56.48
47280;BME280;34064;44.942;0.008;2024-03-07T09:52:26;98342.50;;;12.40;56.49
47280;BME280;34064;44.942;0.008;2024-03-07T09:54:53;98332.13;;;12.56;56.35
47280;BME280;34064;44.942;0.008;2024-03-07T09:57:20;98328.75;;;12.64;55.75
47280;BME280;34064;44.942;0.008;2024-03-07T09:59:47;98327.06;;;12.73;55.65
47280;BME280;34064;44.942;0.008;2024-03-07T10:02:16;98317.09;;;12.75;55.20
47280;BME280;34064;44.942;0.008;2024-03-07T10:04:46;98312.59;;;12.75;55.12
47280;BME280;34064;44.942;0.008;2024-03-07T10:07:17;98311.72;;;12.85;55.11
47280;BME280;34064;44.942;0.008;2024-03-07T10:09:44;98303.16;;;12.91;54.79
47280;BME280;34064;44.942;0.008;2024-03-07T10:12:11;98294.59;;;12.97;55.02
47280;BME280;34064;44.942;0.008;2024-03-07T10:14:52;98283.16;;;13.15;54.55
47280;BME280;34064;44.942;0.008;2024-03-07T10:17:24;98284.53;;;13.19;54.18
47280;BME280;34064;44.942;0.008;2024-03-07T10:19:52;98278.63;;;13.25;54.20
47280;BME280;34064;44.942;0.008;2024-03-07T10:22:20;98272.59;;;13.23;54.61
47280;BME280;34064;44.942;0.008;2024-03-07T10:24:56;98270.31;;;13.28;54.28
47280;BME280;34064;44.942;0.008;2024-03-07T10:27:27;98263.09;;;13.38;54.61
47280;BME280;34064;44.942;0.008;2024-03-07T10:29:54;98258.66;;;13.57;54.29
47280;BME280;34064;44.942;0.008;2024-03-07T10:32:25;98242.44;;;13.68;54.05
47280;BME280;34064;44.942;0.008;2024-03-07T10:34:52;98239.50;;;13.71;53.15
47280;BME280;34064;44.942;0.008;2024-03-07T10:37:19;98231.84;;;13.77;52.88
47280;BME280;34064;44.942;0.008;2024-03-07T10:39:48;98224.59;;;13.87;52.83
47280;BME280;34064;44.942;0.008;2024-03-07T10:42:18;98226.06;;;13.99;52.65
47280;BME280;34064;44.942;0.008;2024-03-07T10:44:48;98206.22;;;14.20;52.88
47280;BME280;34064;44.942;0.008;2024-03-07T10:47:21;98192.28;;;14.34;52.63
47280;BME280;34064;44.942;0.008;2024-03-07T10:59:09;98150.53;;;15.03;51.45
47280;BME280;34064;44.942;0.008;2024-03-07T11:01:45;98139.56;;;15.22;51.32
47280;BME280;34064;44.942;0.008;2024-03-07T11:04:17;98138.59;;;15.32;51.14
47280;BME280;34064;44.942;0.008;2024-03-07T11:06:44;98136.91;;;15.31;51.40
47280;BME280;34064;44.942;0.008;2024-03-07T11:09:11;98130.25;;;15.35;50.79
47280;BME280;34064;44.942;0.008;2024-03-07T11:11:40;98137.28;;;15.44;50.45
47280;BME280;34064;44.942;0.008;2024-03-07T11:14:08;98129.56;;;15.41;51.08
47280;BME280;34064;44.942;0.008;2024-03-07T11:16:40;98121.88;;;15.38;50.63
47280;BME280;34064;44.942;0.008;2024-03-07T11:19:38;98122.72;;;15.38;50.29
47280;BME280;34064;44.942;0.008;2024-03-07T11:22:05;98112.84;;;15.39;50.79
47280;BME280;34064;44.942;0.008;2024-03-07T11:24:44;98115.34;;;15.40;50.12
47280;BME280;34064;44.942;0.008;2024-03-07T11:27:11;98097.97;;;15.53;50.03
47280;BME280;34064;44.942;0.008;2024-03-07T11:29:53;98090.94;;;15.77;49.63
47280;BME280;34064;44.942;0.008;2024-03-07T11:32:20;98086.78;;;15.99;49.51
47280;BME280;34064;44.942;0.008;2024-03-07T11:34:49;98077.00;;;16.22;49.26
47280;BME280;34064;44.942;0.008;2024-03-07T11:37:38;98073.13;;;16.25;48.93
47280;BME280;34064;44.942;0.008;2024-03-07T11:42:53;98070.91;;;16.45;48.84
47280;BME280;34064;44.942;0.008;2024-03-07T11:45:21;98056.75;;;16.60;48.28
47280;BME280;34064;44.942;0.008;2024-03-07T11:48:00;98047.03;;;16.67;48.57
47280;BME280;34064;44.942;0.008;2024-03-07T11:50:27;98042.25;;;16.86;47.66
47280;BME280;34064;44.942;0.008;2024-03-07T11:52:54;98029.44;;;16.96;47.79
47280;BME280;34064;44.942;0.008;2024-03-07T11:55:22;98023.06;;;16.97;47.84
47280;BME280;34064;44.942;0.008;2024-03-07T11:57:49;98017.66;;;17.05;47.54
47280;BME280;34064;44.942;0.008;2024-03-07T12:00:18;98004.66;;;17.17;47.34
47280;BME280;34064;44.942;0.008;2024-03-07T12:02:45;97996.06;;;17.22;47.53
47280;BME280;34064;44.942;0.008;2024-03-07T12:05:14;97992.97;;;17.33;47.04
47280;BME280;34064;44.942;0.008;2024-03-07T12:07:43;97988.53;;;17.40;46.91
47280;BME280;34064;44.942;0.008;2024-03-07T12:10:10;97986.78;;;17.48;46.96
47280;BME280;34064;44.942;0.008;2024-03-07T12:12:37;97976.31;;;17.53;46.75
47280;BME280;34064;44.942;0.008;2024-03-07T12:15:09;97970.06;;;17.60;46.58
47280;BME280;34064;44.942;0.008;2024-03-07T12:17:42;97966.81;;;17.65;46.49
47280;BME280;34064;44.942;0.008;2024-03-07T12:20:09;97962.22;;;17.74;47.04
47280;BME280;34064;44.942;0.008;2024-03-07T12:22:57;97940.72;;;17.89;46.60
47280;BME280;34064;44.942;0.008;2024-03-07T12:25:27;97928.41;;;17.95;46.15
47280;BME280;34064;44.942;0.008;2024-03-07T12:28:07;97926.28;;;18.05;46.30
47280;BME280;34064;44.942;0.008;2024-03-07T12:30:51;97921.44;;;18.15;45.71
47280;BME280;34064;44.942;0.008;2024-03-07T12:33:18;97917.94;;;18.15;46.21
47280;BME280;34064;44.942;0.008;2024-03-07T12:35:49;97913.09;;;18.25;46.15
47280;BME280;34064;44.942;0.008;2024-03-07T12:38:18;97902.69;;;18.37;46.06
47280;BME280;34064;44.942;0.008;2024-03-07T12:40:45;97906.09;;;18.46;45.78
47280;BME280;34064;44.942;0.008;2024-03-07T12:43:22;97892.78;;;18.59;45.10
47280;BME280;34064;44.942;0.008;2024-03-07T12:45:52;97884.22;;;18.70;45.35
47280;BME280;34064;44.942;0.008;2024-03-07T12:48:20;97870.63;;;18.79;44.77
47280;BME280;34064;44.942;0.008;2024-03-07T12:50:50;97863.44;;;18.86;44.69
47280;BME280;34064;44.942;0.008;2024-03-07T12:53:20;97865.53;;;18.91;44.24
47280;BME280;34064;44.942;0.008;2024-03-07T12:55:48;97858.22;;;18.99;44.03
47280;BME280;34064;44.942;0.008;2024-03-07T12:58:14;97859.88;;;19.00;44.43
47280;BME280;34064;44.942;0.008;2024-03-07T13:00:41;97856.19;;;19.08;44.79
47280;BME280;34064;44.942;0.008;2024-03-07T13:03:09;97852.53;;;19.16;44.09
47280;BME280;34064;44.942;0.008;2024-03-07T13:05:40;97852.38;;;19.24;43.78
47280;BME280;34064;44.942;0.008;2024-03-07T13:08:09;97846.41;;;19.29;44.08
47280;BME280;34064;44.942;0.008;2024-03-07T13:10:42;97837.56;;;19.35;43.07
47280;BME280;34064;44.942;0.008;2024-03-07T13:13:09;97834.00;;;19.35;42.70
47280;BME280;34064;44.942;0.008;2024-03-07T13:15:37;97838.38;;;19.36;43.08
47280;BME280;34064;44.942;0.008;2024-03-07T13:18:05;97821.25;;;19.43;42.75
47280;BME280;34064;44.942;0.008;2024-03-07T13:20:32;97812.16;;;19.51;42.18
47280;BME280;34064;44.942;0.008;2024-03-07T13:22:59;97814.66;;;19.53;42.77
47280;BME280;34064;44.942;0.008;2024-03-07T13:25:28;97801.03;;;19.61;43.13